Time;durP1;ratioP1;P1;durP2;ratioP2;P2;SDS_P1;SDS_P2;PMS_P1;PMS_P2;Temp;Humidity;BMP_temperature;BMP_pressure;BME280_temperature;BME280_humidity;BME280_pressure;Samples;Min_cycle;Max_cycle;Signal;HPM_P1;HPM_P2
2023/07/26 00:01:54;;;;;;;3.75;2.17;;;;;;;;;;5002320;28;20046;-73
2023/07/26 00:04:19;;;;;;;3.17;2.20;;;;;;;;;;5000375;28;20041;-73
2023/07/26 00:06:44;;;;;;;3.75;1.90;;;;;;;;;;5000107;28;20184;-75
2023/07/26 00:09:10;;;;;;;2.55;2.17;;;;;;;;;;4997875;28;20049;-73
2023/07/26 00:11:36;;;;;;;2.85;2.30;;;;;;;;;;5001874;28;20041;-73
2023/07/26 00:14:03;;;;;;;2.63;2.03;;;;;;;;;;4999982;28;20128;-73
2023/07/26 00:16:30;;;;;;;3.38;2.20;;;;;;;;;;4998811;28;20049;-72
2023/07/26 00:18:56;;;;;;;2.28;2.05;;;;;;;;;;5004283;28;20071;-73
2023/07/26 00:21:22;;;;;;;1.60;1.50;;;;;;;;;;4983018;28;20050;-74
2023/07/26 00:23:47;;;;;;;2.47;1.45;;;;;;;;;;4999657;28;20054;-73
2023/07/26 00:26:13;;;;;;;1.50;1.40;;;;;;;;;;5000322;28;20053;-73
2023/07/26 00:28:38;;;;;;;2.65;1.90;;;;;;;;;;4999840;28;20048;-73
2023/07/26 00:31:03;;;;;;;2.05;1.88;;;;;;;;;;5004401;28;20427;-72
2023/07/26 00:33:29;;;;;;;6.03;2.50;;;;;;;;;;4999255;28;20132;-73
2023/07/26 00:35:54;;;;;;;4.88;2.50;;;;;;;;;;4999316;28;20054;-72
2023/07/26 00:38:20;;;;;;;3.45;3.13;;;;;;;;;;4999044;28;20050;-70
2023/07/26 00:40:45;;;;;;;4.03;2.95;;;;;;;;;;5005661;28;20041;-73
2023/07/26 00:43:11;;;;;;;3.90;2.20;;;;;;;;;;4989876;28;20057;-72
2023/07/26 00:45:38;;;;;;;4.35;2.47;;;;;;;;;;5004064;28;20132;-73
2023/07/26 00:48:05;;;;;;;4.20;3.30;;;;;;;;;;4998646;28;20041;-74
2023/07/26 00:50:32;;;;;;;3.83;2.80;;;;;;;;;;5004159;28;20120;-72
2023/07/26 00:52:57;;;;;;;4.53;2.72;;;;;;;;;;5004196;28;20276;-73
2023/07/26 00:55:23;;;;;;;4.50;3.30;;;;;;;;;;4999135;28;20050;-72
2023/07/26 00:57:49;;;;;;;5.05;3.35;;;;;;;;;;4999165;28;20053;-74
2023/07/26 01:00:15;;;;;;;3.63;2.78;;;;;;;;;;4999892;28;20059;-73
2023/07/26 01:02:40;;;;;;;4.05;2.80;;;;;;;;;;5003215;28;20053;-72
2023/07/26 01:05:08;;;;;;;3.72;2.80;;;;;;;;;;4989613;28;20037;-72
2023/07/26 01:07:55;;;;;;;7.70;2.95;;;;;;;;;;5001199;28;20506;-74
2023/07/26 01:10:26;;;;;;;4.65;2.60;;;;;;;;;;4981542;28;20115;-73
2023/07/26 01:13:04;;;;;;;5.32;2.85;;;;;;;;;;5004599;28;20050;-71
2023/07/26 01:15:34;;;;;;;4.68;2.60;;;;;;;;;;5005199;28;20770;-73
2023/07/26 01:18:13;;;;;;;4.57;2.65;;;;;;;;;;5008199;28;20057;-71
2023/07/26 01:20:40;;;;;;;3.97;2.88;;;;;;;;;;4981545;28;20041;-72
2023/07/26 01:23:06;;;;;;;5.68;2.97;;;;;;;;;;5000681;28;20112;-72
2023/07/26 01:25:32;;;;;;;4.40;3.00;;;;;;;;;;4998030;28;20352;-71
2023/07/26 01:27:57;;;;;;;7.45;3.15;;;;;;;;;;5000331;28;20128;-72
2023/07/26 01:30:25;;;;;;;7.15;2.45;;;;;;;;;;4997953;28;20469;-73
2023/07/26 01:32:52;;;;;;;4.38;3.33;;;;;;;;;;4998863;28;20046;-73
2023/07/26 01:35:20;;;;;;;4.25;3.53;;;;;;;;;;4998964;28;20132;-73
2023/07/26 01:37:46;;;;;;;5.93;2.97;;;;;;;;;;4986968;28;20049;-72
2023/07/26 01:40:13;;;;;;;3.28;2.50;;;;;;;;;;4997895;28;20049;-73
2023/07/26 01:42:39;;;;;;;3.65;3.17;;;;;;;;;;4998476;28;20260;-73
2023/07/26 01:45:06;;;;;;;6.07;3.22;;;;;;;;;;4998616;28;20804;-72
2023/07/26 01:47:31;;;;;;;2.85;2.42;;;;;;;;;;4995765;28;20064;-72
2023/07/26 01:49:57;;;;;;;7.55;2.78;;;;;;;;;;4998173;28;20057;-73
2023/07/26 01:52:26;;;;;;;4.05;3.10;;;;;;;;;;4999038;28;21119;-73
2023/07/26 01:54:53;;;;;;;5.43;3.28;;;;;;;;;;4998750;28;20133;-73
2023/07/26 01:57:22;;;;;;;4.78;3.60;;;;;;;;;;4999114;28;20140;-73
2023/07/26 01:59:48;;;;;;;3.75;2.92;;;;;;;;;;5003240;28;20444;-74
2023/07/26 02:02:14;;;;;;;6.72;3.22;;;;;;;;;;4999977;28;20045;-74
2023/07/26 02:04:39;;;;;;;4.07;3.20;;;;;;;;;;5004823;28;20052;-73
2023/07/26 02:07:05;;;;;;;8.50;3.65;;;;;;;;;;4998523;28;20054;-73
2023/07/26 02:09:30;;;;;;;5.15;4.00;;;;;;;;;;5000794;28;20049;-72
2023/07/26 02:11:56;;;;;;;5.68;3.53;;;;;;;;;;4998364;28;20072;-73
2023/07/26 02:14:23;;;;;;;4.20;3.70;;;;;;;;;;4998131;28;20054;-73
2023/07/26 02:16:48;;;;;;;6.93;4.30;;;;;;;;;;4999539;28;20049;-73
2023/07/26 02:19:15;;;;;;;9.60;4.70;;;;;;;;;;4998016;28;20450;-74
2023/07/26 02:21:40;;;;;;;6.57;4.25;;;;;;;;;;5005440;28;20041;-74
2023/07/26 02:24:06;;;;;;;10.02;4.40;;;;;;;;;;5007692;28;20050;-73
2023/07/26 02:26:31;;;;;;;6.93;4.63;;;;;;;;;;4997706;28;20042;-71
2023/07/26 02:28:56;;;;;;;7.15;4.07;;;;;;;;;;4998070;28;20073;-73
2023/07/26 02:31:22;;;;;;;7.10;4.47;;;;;;;;;;4997131;28;20034;-72
2023/07/26 02:33:48;;;;;;;9.35;4.40;;;;;;;;;;5000313;28;20063;-72
2023/07/26 02:36:13;;;;;;;6.55;4.55;;;;;;;;;;5007853;28;20103;-71
2023/07/26 02:38:39;;;;;;;8.77;4.65;;;;;;;;;;5001872;28;20165;-71
2023/07/26 02:41:04;;;;;;;7.80;5.30;;;;;;;;;;5001685;28;20052;-72
2023/07/26 02:43:30;;;;;;;7.22;4.35;;;;;;;;;;5007296;28;20050;-72
2023/07/26 02:45:55;;;;;;;7.00;4.50;;;;;;;;;;5007826;28;20054;-73
2023/07/26 02:48:20;;;;;;;7.78;4.63;;;;;;;;;;5000821;28;20049;-73
2023/07/26 02:50:46;;;;;;;6.53;4.07;;;;;;;;;;5001544;28;20675;-73
2023/07/26 02:53:11;;;;;;;6.53;4.40;;;;;;;;;;5000634;28;20049;-72
2023/07/26 02:55:41;;;;;;;7.45;4.28;;;;;;;;;;5001463;28;20046;-72
2023/07/26 02:58:06;;;;;;;7.03;4.50;;;;;;;;;;5000591;28;20041;-75
2023/07/26 03:00:31;;;;;;;6.20;4.47;;;;;;;;;;5004742;28;20057;-72
2023/07/26 03:02:57;;;;;;;7.13;4.65;;;;;;;;;;5006451;28;20057;-72
2023/07/26 03:05:22;;;;;;;8.63;4.70;;;;;;;;;;5009608;28;20113;-73
2023/07/26 03:07:48;;;;;;;5.90;3.92;;;;;;;;;;5002294;28;20045;-74
2023/07/26 03:10:13;;;;;;;6.75;5.10;;;;;;;;;;5001555;28;20945;-73
2023/07/26 03:12:39;;;;;;;8.02;4.65;;;;;;;;;;5001179;28;20052;-72
2023/07/26 03:15:04;;;;;;;6.07;4.38;;;;;;;;;;5006236;28;20041;-73
2023/07/26 03:17:30;;;;;;;6.85;4.72;;;;;;;;;;5000719;28;20049;-73
2023/07/26 03:19:55;;;;;;;5.90;4.45;;;;;;;;;;5000869;28;20057;-72
2023/07/26 03:22:21;;;;;;;6.03;4.45;;;;;;;;;;5005266;28;20491;-73
2023/07/26 03:24:46;;;;;;;6.40;4.80;;;;;;;;;;5004943;28;20064;-72
2023/07/26 03:27:12;;;;;;;8.57;4.63;;;;;;;;;;5007064;28;20104;-73
2023/07/26 03:29:37;;;;;;;7.03;4.38;;;;;;;;;;5000204;28;21134;-72
2023/07/26 03:32:03;;;;;;;7.63;4.45;;;;;;;;;;5002442;28;20041;-73
2023/07/26 03:34:28;;;;;;;5.18;4.05;;;;;;;;;;4999733;28;20061;-73
2023/07/26 03:36:53;;;;;;;8.20;4.72;;;;;;;;;;5000459;28;20049;-74
2023/07/26 03:39:19;;;;;;;7.00;4.40;;;;;;;;;;5001114;28;20048;-73
2023/07/26 03:41:44;;;;;;;7.00;4.50;;;;;;;;;;5005124;28;20052;-72
2023/07/26 03:44:10;;;;;;;9.80;4.03;;;;;;;;;;4999074;28;20176;-73
2023/07/26 03:46:35;;;;;;;7.47;4.57;;;;;;;;;;4999259;28;20046;-73
2023/07/26 03:49:03;;;;;;;8.02;4.47;;;;;;;;;;4999728;28;20347;-73
2023/07/26 03:51:29;;;;;;;8.20;4.22;;;;;;;;;;5000203;28;20450;-74
2023/07/26 03:53:54;;;;;;;5.57;4.32;;;;;;;;;;4999760;28;20054;-75
2023/07/26 03:56:19;;;;;;;6.78;5.00;;;;;;;;;;5000210;28;20120;-73
2023/07/26 03:58:45;;;;;;;8.25;4.93;;;;;;;;;;5003478;28;20057;-74
2023/07/26 04:01:10;;;;;;;10.68;4.60;;;;;;;;;;4999684;28;20046;-73
2023/07/26 04:03:36;;;;;;;8.68;4.25;;;;;;;;;;5000488;28;20046;-74
2023/07/26 04:06:02;;;;;;;7.25;4.25;;;;;;;;;;5007170;28;20056;-72
2023/07/26 04:08:27;;;;;;;7.97;4.40;;;;;;;;;;5004075;28;20065;-73
2023/07/26 04:10:53;;;;;;;6.30;5.25;;;;;;;;;;4999226;28;20050;-73
2023/07/26 04:13:18;;;;;;;10.90;5.22;;;;;;;;;;5000143;28;20769;-74
2023/07/26 04:15:43;;;;;;;7.95;4.30;;;;;;;;;;5002472;28;20770;-73
2023/07/26 04:18:09;;;;;;;5.32;4.10;;;;;;;;;;4987186;28;20037;-74
2023/07/26 04:20:35;;;;;;;6.38;4.72;;;;;;;;;;5002276;28;20514;-72
2023/07/26 04:23:00;;;;;;;6.57;4.47;;;;;;;;;;5002508;28;20054;-72
2023/07/26 04:25:26;;;;;;;5.32;4.13;;;;;;;;;;5002029;28;20084;-73
2023/07/26 04:27:51;;;;;;;7.03;4.88;;;;;;;;;;5001719;28;20503;-73
2023/07/26 04:30:17;;;;;;;10.77;4.53;;;;;;;;;;5002804;28;20451;-74
2023/07/26 04:32:43;;;;;;;5.47;3.90;;;;;;;;;;5002433;28;20037;-72
2023/07/26 04:35:08;;;;;;;6.45;4.57;;;;;;;;;;5006605;28;20511;-72
2023/07/26 04:37:34;;;;;;;7.80;4.45;;;;;;;;;;5007729;28;20045;-74
2023/07/26 04:39:59;;;;;;;8.27;4.07;;;;;;;;;;5000307;28;20120;-71
2023/07/26 04:42:24;;;;;;;5.65;4.10;;;;;;;;;;4998288;28;20099;-71
2023/07/26 04:44:50;;;;;;;4.28;3.65;;;;;;;;;;4997669;28;20052;-73
2023/07/26 04:47:18;;;;;;;5.32;4.10;;;;;;;;;;5005175;28;20103;-74
2023/07/26 04:49:46;;;;;;;6.78;4.20;;;;;;;;;;5023616;28;20797;-73
2023/07/26 04:52:11;;;;;;;5.72;3.72;;;;;;;;;;4979532;28;20115;-71
2023/07/26 04:54:37;;;;;;;3.67;3.30;;;;;;;;;;5005815;28;20045;-74
2023/07/26 04:57:02;;;;;;;3.90;3.50;;;;;;;;;;5005017;28;20079;-74
2023/07/26 04:59:28;;;;;;;4.57;3.58;;;;;;;;;;4997642;28;20499;-73
2023/07/26 05:01:53;;;;;;;4.60;3.83;;;;;;;;;;4999063;28;20566;-73
2023/07/26 05:04:19;;;;;;;6.75;3.38;;;;;;;;;;4996244;28;20073;-76
2023/07/26 05:06:44;;;;;;;5.85;3.95;;;;;;;;;;5001163;28;21004;-74
2023/07/26 05:09:09;;;;;;;5.97;4.05;;;;;;;;;;5000341;28;20095;-72
2023/07/26 05:11:35;;;;;;;7.38;3.60;;;;;;;;;;4998970;28;20042;-75
2023/07/26 05:14:00;;;;;;;5.65;3.90;;;;;;;;;;5003872;28;20541;-73
2023/07/26 05:16:26;;;;;;;4.47;3.15;;;;;;;;;;5003448;28;20057;-75
2023/07/26 05:18:53;;;;;;;3.85;3.30;;;;;;;;;;4999745;28;20049;-74
2023/07/26 05:21:18;;;;;;;3.75;2.97;;;;;;;;;;4999156;28;20096;-75
2023/07/26 05:23:43;;;;;;;3.17;2.88;;;;;;;;;;5000230;28;20134;-75
2023/07/26 05:26:09;;;;;;;7.05;3.25;;;;;;;;;;4997847;28;20165;-72
2023/07/26 05:28:34;;;;;;;4.13;2.90;;;;;;;;;;5000367;28;20100;-74
2023/07/26 05:31:00;;;;;;;5.75;3.60;;;;;;;;;;5001957;28;20088;-75
2023/07/26 05:33:25;;;;;;;6.32;3.58;;;;;;;;;;5004354;28;20084;-75
2023/07/26 05:35:51;;;;;;;3.67;2.90;;;;;;;;;;5002368;28;20069;-75
2023/07/26 05:38:16;;;;;;;3.20;2.90;;;;;;;;;;4997617;28;20054;-75
2023/07/26 05:40:42;;;;;;;6.47;3.63;;;;;;;;;;4999769;28;20060;-75
2023/07/26 05:43:07;;;;;;;3.90;3.05;;;;;;;;;;4984740;28;20046;-73
2023/07/26 05:45:33;;;;;;;7.93;4.18;;;;;;;;;;5000765;28;20460;-75
2023/07/26 05:47:58;;;;;;;7.47;3.92;;;;;;;;;;5011790;28;20499;-75
2023/07/26 05:50:24;;;;;;;5.40;3.88;;;;;;;;;;4998084;28;20471;-73
2023/07/26 05:52:49;;;;;;;5.28;3.60;;;;;;;;;;5012063;28;20048;-74
2023/07/26 05:55:15;;;;;;;5.68;3.60;;;;;;;;;;5004049;28;20042;-74
2023/07/26 05:57:40;;;;;;;5.53;3.67;;;;;;;;;;5007255;28;20561;-74
2023/07/26 06:00:07;;;;;;;7.38;4.25;;;;;;;;;;4983842;28;20053;-73
2023/07/26 06:02:37;;;;;;;4.65;4.18;;;;;;;;;;4998519;28;21061;-73
2023/07/26 06:05:03;;;;;;;8.35;4.60;;;;;;;;;;4999891;28;20057;-73
2023/07/26 06:07:28;;;;;;;6.55;4.43;;;;;;;;;;5002806;28;20052;-73
2023/07/26 06:09:54;;;;;;;6.50;3.67;;;;;;;;;;5010416;28;20054;-73
2023/07/26 06:12:19;;;;;;;5.53;4.43;;;;;;;;;;5007314;28;20172;-73
2023/07/26 06:14:44;;;;;;;8.20;4.93;;;;;;;;;;5010709;28;20061;-74
2023/07/26 06:17:12;;;;;;;6.13;4.47;;;;;;;;;;5002100;28;20060;-74
2023/07/26 06:19:37;;;;;;;6.22;4.85;;;;;;;;;;5011358;28;20046;-73
2023/07/26 06:22:03;;;;;;;5.50;4.33;;;;;;;;;;5001354;28;20065;-74
2023/07/26 06:24:28;;;;;;;8.43;4.72;;;;;;;;;;5006156;28;20247;-73
2023/07/26 06:26:54;;;;;;;8.73;4.40;;;;;;;;;;5005302;28;20080;-73
2023/07/26 06:29:20;;;;;;;8.45;4.45;;;;;;;;;;5003589;28;20081;-73
2023/07/26 06:31:48;;;;;;;6.25;4.90;;;;;;;;;;5007195;28;20494;-73
2023/07/26 06:34:13;;;;;;;5.45;4.85;;;;;;;;;;5004495;28;20093;-74
2023/07/26 06:36:38;;;;;;;6.60;5.20;;;;;;;;;;5010240;28;20081;-73
2023/07/26 06:39:04;;;;;;;8.40;5.72;;;;;;;;;;5001473;28;20104;-73
2023/07/26 06:41:29;;;;;;;11.30;5.53;;;;;;;;;;5004891;28;20073;-76
2023/07/26 06:43:55;;;;;;;9.55;6.00;;;;;;;;;;5012294;28;20104;-75
2023/07/26 06:46:20;;;;;;;9.00;6.13;;;;;;;;;;5005624;28;20446;-75
2023/07/26 06:48:46;;;;;;;10.52;6.78;;;;;;;;;;5002768;28;20057;-76
2023/07/26 06:51:12;;;;;;;8.05;5.82;;;;;;;;;;5016818;28;20517;-75
2023/07/26 06:53:37;;;;;;;9.05;5.72;;;;;;;;;;5004943;28;20503;-76
2023/07/26 06:56:03;;;;;;;9.88;6.85;;;;;;;;;;5008369;28;20050;-75
2023/07/26 06:58:28;;;;;;;12.45;6.40;;;;;;;;;;5003643;28;20604;-75
2023/07/26 07:00:54;;;;;;;11.35;6.97;;;;;;;;;;5005845;28;21066;-75
2023/07/26 07:03:20;;;;;;;11.63;7.20;;;;;;;;;;5003257;28;20050;-76
2023/07/26 07:05:46;;;;;;;9.73;6.65;;;;;;;;;;5009016;28;20072;-76
2023/07/26 07:08:12;;;;;;;10.48;7.25;;;;;;;;;;4986208;28;20052;-76
2023/07/26 07:10:37;;;;;;;12.20;7.63;;;;;;;;;;5001256;28;20132;-76
2023/07/26 07:13:03;;;;;;;10.43;7.50;;;;;;;;;;5006768;28;20049;-75
2023/07/26 07:15:28;;;;;;;9.85;7.25;;;;;;;;;;5007631;28;20048;-75
2023/07/26 07:17:54;;;;;;;13.15;8.05;;;;;;;;;;5006711;28;20085;-76
2023/07/26 07:20:19;;;;;;;13.13;7.88;;;;;;;;;;5001367;28;20135;-74
2023/07/26 07:22:45;;;;;;;9.65;6.88;;;;;;;;;;5002787;28;20053;-75
2023/07/26 07:25:10;;;;;;;12.63;7.82;;;;;;;;;;5004430;28;20061;-73
2023/07/26 07:27:36;;;;;;;12.43;8.20;;;;;;;;;;5006512;28;20056;-73
2023/07/26 07:30:02;;;;;;;11.80;8.15;;;;;;;;;;5002323;28;20060;-71
2023/07/26 07:32:27;;;;;;;10.43;6.65;;;;;;;;;;5007337;28;20466;-71
2023/07/26 07:34:52;;;;;;;11.30;7.05;;;;;;;;;;5007652;28;20049;-71
2023/07/26 07:37:19;;;;;;;9.70;6.32;;;;;;;;;;5013963;28;20058;-73
2023/07/26 07:39:44;;;;;;;9.52;5.97;;;;;;;;;;5009391;28;20057;-73
2023/07/26 07:42:10;;;;;;;9.55;5.90;;;;;;;;;;5006119;28;20088;-73
2023/07/26 07:44:35;;;;;;;9.00;6.30;;;;;;;;;;5004711;28;20063;-74
2023/07/26 07:47:01;;;;;;;9.45;5.82;;;;;;;;;;5000682;28;20124;-72
2023/07/26 07:49:26;;;;;;;9.65;6.20;;;;;;;;;;5006351;28;20050;-73
2023/07/26 07:51:52;;;;;;;9.40;6.30;;;;;;;;;;5008806;28;20046;-73
2023/07/26 07:54:18;;;;;;;10.60;6.68;;;;;;;;;;5008995;28;20140;-73
2023/07/26 07:56:45;;;;;;;9.68;6.25;;;;;;;;;;5002145;28;20053;-73
2023/07/26 07:59:10;;;;;;;9.07;6.57;;;;;;;;;;5001709;28;20061;-75
2023/07/26 08:01:36;;;;;;;9.90;6.75;;;;;;;;;;5007458;28;20050;-76
2023/07/26 08:04:02;;;;;;;15.45;7.10;;;;;;;;;;5011890;28;20050;-75
2023/07/26 08:06:28;;;;;;;12.63;7.28;;;;;;;;;;5011086;28;20049;-75
2023/07/26 08:08:54;;;;;;;8.73;6.13;;;;;;;;;;5009142;28;20439;-75
2023/07/26 08:11:19;;;;;;;8.63;6.03;;;;;;;;;;5004446;28;20049;-76
2023/07/26 08:13:45;;;;;;;8.15;6.18;;;;;;;;;;5005533;28;20091;-75
2023/07/26 08:16:10;;;;;;;9.73;6.80;;;;;;;;;;5001178;28;20073;-75
2023/07/26 08:18:37;;;;;;;7.57;4.95;;;;;;;;;;5001512;28;20103;-76
2023/07/26 08:21:03;;;;;;;9.05;4.65;;;;;;;;;;5001517;28;20045;-76
2023/07/26 08:23:30;;;;;;;7.65;4.30;;;;;;;;;;5008022;28;20067;-76
2023/07/26 08:25:56;;;;;;;5.40;3.90;;;;;;;;;;5008951;28;20120;-75
2023/07/26 08:28:22;;;;;;;5.70;4.32;;;;;;;;;;5000809;28;20133;-75
2023/07/26 08:30:47;;;;;;;5.05;3.85;;;;;;;;;;5004054;28;20141;-75
2023/07/26 08:33:13;;;;;;;5.00;3.47;;;;;;;;;;5000940;28;20112;-75
2023/07/26 08:35:38;;;;;;;4.60;3.40;;;;;;;;;;5001392;28;20046;-74
2023/07/26 08:38:04;;;;;;;3.35;3.00;;;;;;;;;;5005448;28;20140;-75
2023/07/26 08:40:30;;;;;;;7.30;3.33;;;;;;;;;;4999476;28;20057;-76
2023/07/26 08:42:56;;;;;;;3.58;2.42;;;;;;;;;;4999745;28;20057;-71
2023/07/26 08:45:22;;;;;;;3.97;2.90;;;;;;;;;;5000579;28;20082;-72
2023/07/26 08:47:49;;;;;;;5.07;2.28;;;;;;;;;;5005303;28;20064;-74
2023/07/26 08:50:14;;;;;;;2.45;2.15;;;;;;;;;;5002180;28;20042;-74
2023/07/26 08:52:41;;;;;;;3.40;2.03;;;;;;;;;;5001298;28;20054;-75
2023/07/26 08:55:08;;;;;;;2.20;2.00;;;;;;;;;;4999578;28;20197;-73
2023/07/26 08:57:34;;;;;;;1.60;1.50;;;;;;;;;;5011051;28;20049;-77
2023/07/26 08:59:59;;;;;;;2.78;1.90;;;;;;;;;;5000462;28;20056;-72
2023/07/26 09:02:26;;;;;;;2.15;1.63;;;;;;;;;;5000281;28;20073;-75
2023/07/26 09:04:51;;;;;;;2.17;1.40;;;;;;;;;;4999720;28;20060;-72
2023/07/26 09:07:17;;;;;;;1.55;1.23;;;;;;;;;;5006133;28;20053;-75
2023/07/26 09:09:43;;;;;;;2.20;1.50;;;;;;;;;;4999123;28;20060;-73
2023/07/26 09:12:08;;;;;;;1.92;1.60;;;;;;;;;;5000767;28;20042;-72
2023/07/26 09:14:34;;;;;;;3.47;1.70;;;;;;;;;;4998928;28;20149;-73
2023/07/26 09:17:02;;;;;;;1.55;1.30;;;;;;;;;;5007093;28;20057;-73
2023/07/26 09:19:33;;;;;;;2.15;1.60;;;;;;;;;;5013567;28;20092;-74
2023/07/26 09:22:01;;;;;;;2.83;1.17;;;;;;;;;;4999265;28;20060;-74
2023/07/26 09:24:35;;;;;;;2.35;1.50;;;;;;;;;;4998269;28;20052;-74
2023/07/26 09:27:03;;;;;;;3.17;1.67;;;;;;;;;;5006213;28;20045;-74
2023/07/26 09:29:29;;;;;;;2.80;1.40;;;;;;;;;;5021095;28;20053;-74
2023/07/26 09:31:54;;;;;;;1.85;1.60;;;;;;;;;;5003307;28;20057;-73
2023/07/26 09:34:20;;;;;;;2.05;1.38;;;;;;;;;;4998728;28;20607;-74
2023/07/26 09:36:48;;;;;;;1.50;1.40;;;;;;;;;;5000729;28;20049;-73
2023/07/26 09:39:14;;;;;;;1.40;1.30;;;;;;;;;;4998096;28;20153;-74
2023/07/26 09:41:41;;;;;;;2.42;1.60;;;;;;;;;;4982735;28;20097;-74
2023/07/26 09:44:14;;;;;;;2.47;1.70;;;;;;;;;;5003055;28;20558;-74
2023/07/26 09:46:54;;;;;;;2.08;1.35;;;;;;;;;;5010666;28;20045;-74
2023/07/26 09:49:22;;;;;;;2.22;1.63;;;;;;;;;;5003013;28;20596;-74
2023/07/26 09:51:48;;;;;;;2.17;1.33;;;;;;;;;;5003327;28;20688;-74
2023/07/26 09:54:14;;;;;;;1.65;1.30;;;;;;;;;;5002109;28;20057;-74
2023/07/26 09:56:43;;;;;;;1.45;1.35;;;;;;;;;;5003078;28;20061;-73
2023/07/26 09:59:11;;;;;;;1.20;1.10;;;;;;;;;;5002683;28;20056;-73
2023/07/26 10:01:40;;;;;;;1.20;1.10;;;;;;;;;;5002066;28;20049;-74
2023/07/26 10:04:10;;;;;;;0.90;0.90;;;;;;;;;;5003808;28;20197;-75
2023/07/26 10:06:37;;;;;;;1.15;1.05;;;;;;;;;;5011203;28;20140;-75
2023/07/26 10:09:02;;;;;;;0.90;0.90;;;;;;;;;;5013101;28;21105;-77
2023/07/26 10:11:29;;;;;;;1.75;1.35;;;;;;;;;;5012565;28;20081;-73
2023/07/26 10:13:58;;;;;;;1.75;1.20;;;;;;;;;;5010774;28;20203;-73
2023/07/26 10:16:25;;;;;;;0.98;0.90;;;;;;;;;;5007318;28;20084;-74
2023/07/26 10:18:53;;;;;;;5.03;1.10;;;;;;;;;;5005194;28;20300;-74
2023/07/26 10:21:21;;;;;;;1.05;1.00;;;;;;;;;;5002497;28;20103;-74
2023/07/26 10:23:48;;;;;;;1.70;0.90;;;;;;;;;;5008537;28;20038;-74
2023/07/26 10:26:15;;;;;;;1.00;0.90;;;;;;;;;;5008095;28;21018;-74
2023/07/26 10:28:41;;;;;;;1.17;1.08;;;;;;;;;;5003255;28;20111;-73
2023/07/26 10:31:07;;;;;;;1.10;1.10;;;;;;;;;;5010385;28;20045;-74
2023/07/26 10:33:42;;;;;;;1.40;1.10;;;;;;;;;;5008703;28;20580;-73
2023/07/26 10:36:10;;;;;;;3.10;1.08;;;;;;;;;;5014484;28;20053;-74
2023/07/26 10:38:46;;;;;;;2.33;0.90;;;;;;;;;;5018830;28;20518;-73
2023/07/26 10:41:26;;;;;;;1.73;1.13;;;;;;;;;;5014282;28;20140;-74
2023/07/26 10:44:06;;;;;;;4.10;0.93;;;;;;;;;;5011854;28;20499;-74
2023/07/26 10:46:47;;;;;;;1.23;1.10;;;;;;;;;;5010583;28;20144;-74
2023/07/26 10:49:33;;;;;;;1.25;0.80;;;;;;;;;;5007538;28;20076;-74
2023/07/26 10:52:02;;;;;;;2.08;1.10;;;;;;;;;;5015608;28;20561;-73
2023/07/26 10:55:03;;;;;;;0.90;0.90;;;;;;;;;;5009779;28;20040;-74
2023/07/26 10:57:32;;;;;;;1.63;1.00;;;;;;;;;;4995050;28;20128;-71
2023/07/26 11:00:06;;;;;;;2.28;1.00;;;;;;;;;;5003182;28;20061;-74
2023/07/26 11:02:43;;;;;;;1.00;0.90;;;;;;;;;;5010092;28;20061;-73
2023/07/26 11:05:19;;;;;;;0.75;0.75;;;;;;;;;;5008079;28;20057;-71
2023/07/26 11:08:02;;;;;;;3.22;1.00;;;;;;;;;;5010630;28;20077;-72
2023/07/26 11:10:35;;;;;;;1.05;0.85;;;;;;;;;;5001888;28;20057;-72
2023/07/26 11:13:11;;;;;;;1.15;1.05;;;;;;;;;;5002637;28;20074;-72
2023/07/26 11:15:49;;;;;;;1.15;0.90;;;;;;;;;;5017574;28;20046;-72
2023/07/26 11:18:16;;;;;;;1.27;1.08;;;;;;;;;;5007272;28;20087;-72
2023/07/26 11:20:47;;;;;;;1.30;0.95;;;;;;;;;;5000917;28;20861;-72
2023/07/26 11:23:27;;;;;;;1.52;1.10;;;;;;;;;;5014193;28;20049;-72
2023/07/26 11:26:00;;;;;;;0.70;0.70;;;;;;;;;;4998450;28;20064;-73
2023/07/26 11:28:33;;;;;;;1.25;0.80;;;;;;;;;;4999240;28;20041;-73
2023/07/26 11:31:00;;;;;;;1.27;0.98;;;;;;;;;;5003403;28;20076;-74
2023/07/26 11:33:30;;;;;;;1.20;0.82;;;;;;;;;;4997907;28;20379;-74
2023/07/26 11:35:57;;;;;;;1.97;0.90;;;;;;;;;;5004353;28;20053;-74
2023/07/26 11:38:22;;;;;;;4.75;1.10;;;;;;;;;;5004254;28;20045;-74
2023/07/26 11:40:50;;;;;;;1.23;0.77;;;;;;;;;;5011827;28;20056;-73
2023/07/26 11:43:16;;;;;;;6.22;1.02;;;;;;;;;;5002411;28;20049;-73
2023/07/26 11:45:43;;;;;;;0.90;0.80;;;;;;;;;;4999740;28;20049;-73
2023/07/26 11:48:11;;;;;;;2.35;0.80;;;;;;;;;;4997928;28;20061;-74
2023/07/26 11:50:39;;;;;;;1.02;0.82;;;;;;;;;;5001316;28;20049;-74
2023/07/26 11:53:07;;;;;;;1.98;0.93;;;;;;;;;;4998880;28;20489;-73
2023/07/26 11:55:34;;;;;;;4.20;0.90;;;;;;;;;;4999709;28;20073;-73
2023/07/26 11:58:03;;;;;;;1.80;1.20;;;;;;;;;;4999074;28;20406;-73
2023/07/26 12:00:33;;;;;;;1.45;0.75;;;;;;;;;;4999019;28;20116;-74
2023/07/26 12:03:03;;;;;;;2.05;0.88;;;;;;;;;;5001824;28;20750;-73
2023/07/26 12:05:29;;;;;;;1.15;1.00;;;;;;;;;;4999894;28;20772;-73
2023/07/26 12:07:59;;;;;;;2.75;0.90;;;;;;;;;;4998903;28;20049;-73
2023/07/26 12:10:34;;;;;;;1.50;0.90;;;;;;;;;;5004042;28;20073;-74
2023/07/26 12:13:07;;;;;;;0.80;0.80;;;;;;;;;;5010100;28;20053;-73
2023/07/26 12:15:48;;;;;;;1.40;1.08;;;;;;;;;;5003196;28;20045;-73
2023/07/26 12:18:14;;;;;;;1.90;0.70;;;;;;;;;;5001401;28;20049;-73
2023/07/26 12:20:55;;;;;;;2.67;1.00;;;;;;;;;;4998717;28;20056;-74
2023/07/26 12:23:21;;;;;;;3.30;1.08;;;;;;;;;;5002505;28;20046;-74
2023/07/26 12:25:52;;;;;;;0.82;0.80;;;;;;;;;;5025019;28;20081;-73
2023/07/26 12:28:17;;;;;;;0.60;0.60;;;;;;;;;;5005434;28;20112;-73
2023/07/26 12:30:57;;;;;;;1.60;0.80;;;;;;;;;;5009411;28;20469;-72
2023/07/26 12:33:24;;;;;;;2.13;0.80;;;;;;;;;;5003449;28;20490;-72
2023/07/26 12:35:55;;;;;;;1.77;0.70;;;;;;;;;;5008208;28;20053;-72
2023/07/26 12:38:22;;;;;;;1.27;0.73;;;;;;;;;;5000707;28;20449;-73
2023/07/26 12:40:50;;;;;;;1.02;0.93;;;;;;;;;;4999470;28;20058;-72
2023/07/26 12:43:22;;;;;;;0.70;0.70;;;;;;;;;;4997496;28;20061;-73
2023/07/26 12:45:47;;;;;;;1.13;1.02;;;;;;;;;;5003894;28;20130;-73
2023/07/26 12:48:12;;;;;;;2.17;1.05;;;;;;;;;;5001160;28;20156;-73
2023/07/26 12:50:39;;;;;;;2.13;1.27;;;;;;;;;;5001488;28;20498;-73
2023/07/26 12:53:06;;;;;;;1.65;0.98;;;;;;;;;;4995679;28;20045;-73
2023/07/26 12:55:32;;;;;;;1.25;1.00;;;;;;;;;;5006306;28;20187;-73
2023/07/26 12:57:57;;;;;;;1.13;1.02;;;;;;;;;;5008524;28;20601;-73
2023/07/26 13:00:23;;;;;;;1.30;1.20;;;;;;;;;;4999801;28;20049;-73
2023/07/26 13:02:48;;;;;;;4.20;1.00;;;;;;;;;;4998210;28;20061;-73
2023/07/26 13:05:14;;;;;;;1.20;1.10;;;;;;;;;;4998606;28;20522;-73
2023/07/26 13:07:39;;;;;;;0.90;0.90;;;;;;;;;;5006215;28;20052;-73
2023/07/26 13:10:05;;;;;;;0.85;0.85;;;;;;;;;;4998875;28;20582;-72
2023/07/26 13:12:31;;;;;;;1.17;1.13;;;;;;;;;;4992955;28;20048;-71
2023/07/26 13:14:56;;;;;;;1.20;1.10;;;;;;;;;;4997055;28;20085;-74
2023/07/26 13:17:21;;;;;;;1.17;1.05;;;;;;;;;;4996053;28;20307;-76
2023/07/26 13:19:47;;;;;;;1.73;1.17;;;;;;;;;;4998876;28;20042;-71
2023/07/26 13:22:13;;;;;;;1.42;1.20;;;;;;;;;;4996751;28;20038;-73
2023/07/26 13:24:38;;;;;;;2.58;1.10;;;;;;;;;;5003061;28;20546;-72
2023/07/26 13:27:04;;;;;;;1.20;1.10;;;;;;;;;;4999510;28;20439;-72
2023/07/26 13:29:30;;;;;;;1.40;1.10;;;;;;;;;;5012202;28;21039;-72
2023/07/26 13:31:55;;;;;;;1.70;1.20;;;;;;;;;;4998743;28;20053;-72
2023/07/26 13:34:22;;;;;;;1.48;1.38;;;;;;;;;;5010711;28;20045;-73
2023/07/26 13:36:48;;;;;;;2.03;1.60;;;;;;;;;;4999160;28;20123;-73
2023/07/26 13:39:13;;;;;;;2.35;1.40;;;;;;;;;;5000107;28;20522;-72
2023/07/26 13:41:40;;;;;;;1.33;1.23;;;;;;;;;;4999716;28;20452;-73
2023/07/26 13:44:05;;;;;;;2.25;1.20;;;;;;;;;;5006795;28;20042;-73
2023/07/26 13:46:31;;;;;;;5.07;1.35;;;;;;;;;;5007845;28;20053;-72
2023/07/26 13:48:56;;;;;;;1.00;1.00;;;;;;;;;;4998714;28;20517;-73
2023/07/26 13:51:22;;;;;;;1.42;1.23;;;;;;;;;;4999851;28;20054;-72
2023/07/26 13:53:47;;;;;;;2.58;1.20;;;;;;;;;;5000448;28;20061;-73
2023/07/26 13:56:13;;;;;;;1.55;1.13;;;;;;;;;;5004895;28;20046;-73
2023/07/26 13:58:38;;;;;;;1.80;1.20;;;;;;;;;;5000132;28;20053;-72
2023/07/26 14:01:04;;;;;;;2.33;1.40;;;;;;;;;;5002678;28;20042;-72
2023/07/26 14:03:29;;;;;;;1.50;1.40;;;;;;;;;;5006533;28;22534;-72
2023/07/26 14:05:54;;;;;;;1.55;1.45;;;;;;;;;;5005355;28;20587;-72
2023/07/26 14:08:20;;;;;;;1.52;1.30;;;;;;;;;;5005442;28;20165;-72
2023/07/26 14:10:45;;;;;;;1.40;1.30;;;;;;;;;;4997574;28;20433;-72
2023/07/26 14:13:10;;;;;;;3.92;1.23;;;;;;;;;;4997625;28;20271;-72
2023/07/26 14:15:36;;;;;;;2.53;1.20;;;;;;;;;;5022536;28;20041;-72
2023/07/26 14:18:01;;;;;;;1.67;1.27;;;;;;;;;;4998080;28;20096;-71
2023/07/26 14:20:27;;;;;;;2.80;1.52;;;;;;;;;;4999756;28;20058;-72
2023/07/26 14:22:52;;;;;;;2.22;1.10;;;;;;;;;;4999927;28;20103;-72
2023/07/26 14:25:18;;;;;;;1.80;1.30;;;;;;;;;;5004011;28;20053;-70
2023/07/26 14:27:43;;;;;;;1.17;1.10;;;;;;;;;;5000417;28;20048;-72
2023/07/26 14:30:09;;;;;;;1.30;1.20;;;;;;;;;;5003895;28;20457;-71
2023/07/26 14:32:34;;;;;;;1.40;1.05;;;;;;;;;;5008896;28;20050;-71
2023/07/26 14:35:00;;;;;;;3.55;1.23;;;;;;;;;;5003816;28;20050;-70
2023/07/26 14:37:25;;;;;;;4.47;1.45;;;;;;;;;;5003363;28;20080;-72
2023/07/26 14:39:51;;;;;;;1.35;1.25;;;;;;;;;;5012670;28;20801;-72
2023/07/26 14:42:16;;;;;;;1.30;1.20;;;;;;;;;;5009686;28;20049;-74